createdAt,value
2019-03-21T00:02:22.969Z,97633.41
2019-03-21T00:04:50.433Z,97631.36
2019-03-21T00:07:17.775Z,97623.86
2019-03-21T00:09:45.889Z,97627.41
2019-03-21T00:12:13.217Z,97628.84
2019-03-21T00:14:40.554Z,97627.34
2019-03-21T00:17:07.602Z,97633.25
2019-03-21T00:19:34.651Z,97630.89
2019-03-21T00:22:01.681Z,97627.70
2019-03-21T00:24:28.807Z,97632.92
2019-03-21T00:26:55.842Z,97631.78
2019-03-21T00:29:23.269Z,97627.08
2019-03-21T00:31:50.305Z,97628.68
2019-03-21T00:34:17.656Z,97628.16
2019-03-21T00:36:45.024Z,97628.84
2019-03-21T00:39:12.078Z,97630.82
2019-03-21T00:41:39.414Z,97633.63
2019-03-21T00:44:17.597Z,97635.30
2019-03-21T00:46:35.862Z,97637.95
2019-03-21T00:49:02.895Z,97635.45
2019-03-21T00:51:30.183Z,97636.73
2019-03-21T00:53:57.539Z,97634.99
2019-03-21T00:56:24.603Z,97633.77
2019-03-21T00:58:52.600Z,97636.42
2019-03-21T01:01:20.023Z,97631.48
2019-03-21T01:03:47.030Z,97631.25
2019-03-21T01:06:14.137Z,97627.68
2019-03-21T01:08:41.445Z,97627.58
2019-03-21T01:11:08.845Z,97629.46
2019-03-21T01:13:36.152Z,97631.17
2019-03-21T01:16:03.209Z,97632.73
2019-03-21T01:18:30.248Z,97629.11
2019-03-21T01:20:57.643Z,97623.34
2019-03-21T01:23:24.713Z,97620.00
2019-03-21T01:25:51.762Z,97622.44
2019-03-21T01:28:19.166Z,97624.35
2019-03-21T01:30:46.515Z,97624.08
2019-03-21T01:33:13.885Z,97619.56
2019-03-21T01:35:41.230Z,97615.42
2019-03-21T01:38:08.261Z,97615.49
2019-03-21T01:40:35.835Z,97618.16
2019-03-21T01:43:03.187Z,97609.16
2019-03-21T01:45:40.505Z,97606.34
2019-03-21T01:48:07.552Z,97612.16
2019-03-21T01:50:34.592Z,97608.98
2019-03-21T01:53:01.650Z,97610.42
2019-03-21T01:55:28.699Z,97611.25
2019-03-21T01:57:56.022Z,97610.34
2019-03-21T02:00:23.380Z,97601.48
2019-03-21T02:02:50.503Z,97604.51
2019-03-21T02:05:17.621Z,97597.24
2019-03-21T02:07:45.055Z,97604.05
2019-03-21T02:10:12.392Z,97602.45
2019-03-21T02:12:39.696Z,97597.14
2019-03-21T02:15:07.013Z,97595.30
2019-03-21T02:17:34.364Z,97593.45
2019-03-21T02:20:01.709Z,97589.66
2019-03-21T02:22:29.186Z,97590.05
2019-03-21T02:24:56.228Z,97586.44
2019-03-21T02:27:23.566Z,97582.98
2019-03-21T02:29:50.603Z,97585.28
2019-03-21T02:32:17.660Z,97581.81
2019-03-21T02:34:45.020Z,97582.64
2019-03-21T02:37:12.078Z,97584.83
2019-03-21T02:39:39.424Z,97583.47
2019-03-21T02:42:06.487Z,97581.35
2019-03-21T02:44:33.582Z,97573.78
2019-03-21T02:47:00.655Z,97578.82
2019-03-21T02:49:27.688Z,97577.81
2019-03-21T02:51:54.751Z,97576.49
2019-03-21T02:54:21.807Z,97579.41
2019-03-21T02:56:49.199Z,97583.92
2019-03-21T02:59:16.232Z,97582.55
2019-03-21T03:01:43.286Z,97586.41
2019-03-21T03:04:10.402Z,97579.53
2019-03-21T03:06:37.446Z,97580.37
2019-03-21T03:09:04.817Z,97585.58
2019-03-21T03:11:32.029Z,97583.45
2019-03-21T03:13:59.429Z,97584.74
2019-03-21T03:16:26.713Z,97588.08
2019-03-21T03:18:54.033Z,97586.34
2019-03-21T03:21:21.079Z,97586.63
2019-03-21T03:23:48.133Z,97580.37
2019-03-21T03:26:15.172Z,97584.67
2019-03-21T03:28:42.481Z,97581.34
2019-03-21T03:31:09.522Z,97585.98
2019-03-21T03:33:36.574Z,97587.08
2019-03-21T03:36:04.089Z,97588.56
2019-03-21T03:38:31.152Z,97592.10
2019-03-21T03:40:58.196Z,97591.78
2019-03-21T03:43:25.539Z,97588.06
2019-03-21T03:45:52.588Z,97587.81
2019-03-21T03:48:20.815Z,97589.36
2019-03-21T03:50:48.066Z,97584.09
2019-03-21T03:53:15.471Z,97585.83
2019-03-21T03:55:42.824Z,97594.05
2019-03-21T03:58:10.188Z,97586.34
2019-03-21T04:00:37.541Z,97581.20
2019-03-21T04:03:05.812Z,97581.66
2019-03-21T04:05:33.170Z,97582.20
2019-03-21T04:08:00.215Z,97585.22
2019-03-21T04:10:27.338Z,97585.73
2019-03-21T04:12:54.390Z,97580.34
2019-03-21T04:15:21.767Z,97574.88
2019-03-21T04:17:48.820Z,97572.70
2019-03-21T04:20:16.111Z,97569.75
2019-03-21T04:22:43.168Z,97566.80
2019-03-21T04:25:10.473Z,97565.45
2019-03-21T04:27:37.508Z,97563.71
2019-03-21T04:30:04.899Z,97562.11
2019-03-21T04:32:31.939Z,97560.69
2019-03-21T04:34:59.273Z,97556.39
2019-03-21T04:37:26.634Z,97561.78
2019-03-21T04:39:53.684Z,97560.72
2019-03-21T04:42:20.722Z,97558.16
2019-03-21T04:44:48.085Z,97561.33
2019-03-21T04:47:15.446Z,97562.36
2019-03-21T04:49:42.790Z,97562.49
2019-03-21T04:52:10.147Z,97567.31
2019-03-21T04:54:37.253Z,97568.66
2019-03-21T04:57:04.554Z,97565.45
2019-03-21T04:59:31.602Z,97568.40
2019-03-21T05:01:58.648Z,97573.02
2019-03-21T05:04:25.715Z,97574.69
2019-03-21T05:06:53.054Z,97572.13
2019-03-21T05:11:59.743Z,97579.77
2019-03-21T05:14:27.203Z,97581.30
2019-03-21T05:16:54.244Z,97583.74
2019-03-21T05:19:21.298Z,97594.59
2019-03-21T05:21:48.650Z,97587.69
2019-03-21T05:24:15.712Z,97588.39
2019-03-21T05:26:42.890Z,97583.70
2019-03-21T05:29:10.321Z,97588.77
2019-03-21T05:31:37.369Z,97580.84
2019-03-21T05:34:04.705Z,97586.86
2019-03-21T05:36:33.015Z,97598.38
2019-03-21T05:39:00.067Z,97596.06
2019-03-21T05:41:27.107Z,97590.73
2019-03-21T05:43:54.156Z,97590.00
2019-03-21T05:46:26.439Z,97590.46
2019-03-21T05:48:51.333Z,97594.91
2019-03-21T05:51:18.371Z,97593.94
2019-03-21T05:53:45.425Z,97585.59
2019-03-21T05:56:12.464Z,97585.92
2019-03-21T05:58:39.518Z,97592.75
2019-03-21T06:01:06.550Z,97593.72
2019-03-21T06:03:33.894Z,97599.38
2019-03-21T06:06:00.944Z,97601.59
2019-03-21T06:08:28.293Z,97605.53
2019-03-21T06:10:55.344Z,97600.50
2019-03-21T06:13:22.697Z,97600.91
2019-03-21T06:15:50.052Z,97601.12
2019-03-21T06:18:17.409Z,97597.09
2019-03-21T06:20:44.470Z,97593.51
2019-03-21T06:23:11.506Z,97590.50
2019-03-21T06:25:38.815Z,97588.27
2019-03-21T06:28:05.848Z,97588.47
2019-03-21T06:30:32.900Z,97584.23
2019-03-21T06:32:59.939Z,97594.92
2019-03-21T06:35:27.358Z,97594.74
2019-03-21T06:37:54.405Z,97593.45
2019-03-21T06:40:21.457Z,97591.05
2019-03-21T06:42:48.495Z,97590.93
2019-03-21T06:45:15.544Z,97589.52
2019-03-21T06:47:42.580Z,97591.71
2019-03-21T06:50:09.950Z,97587.94
2019-03-21T06:52:37.253Z,97587.24
2019-03-21T06:55:04.670Z,97593.20
2019-03-21T06:57:32.014Z,97596.55
2019-03-21T06:59:59.375Z,97593.20
2019-03-21T07:02:26.423Z,97594.43
2019-03-21T07:04:53.773Z,97594.35
2019-03-21T07:07:20.812Z,97594.34
2019-03-21T07:09:47.851Z,97591.13
2019-03-21T07:12:14.899Z,97594.59
2019-03-21T07:14:42.294Z,97590.78
2019-03-21T07:17:09.625Z,97596.08
2019-03-21T07:19:37.887Z,97593.16
2019-03-21T07:22:04.941Z,97588.48
2019-03-21T07:24:31.982Z,97596.53
2019-03-21T07:26:59.035Z,97589.21
2019-03-21T07:29:26.402Z,97593.41
2019-03-21T07:31:53.454Z,97597.58
2019-03-21T07:34:20.508Z,97602.17
2019-03-21T07:36:47.855Z,97601.97
2019-03-21T07:39:15.212Z,97603.65
2019-03-21T07:41:42.268Z,97605.18
2019-03-21T07:44:09.308Z,97598.07
2019-03-21T07:46:36.365Z,97602.15
2019-03-21T07:49:03.476Z,97600.87
2019-03-21T07:51:30.539Z,97596.27
2019-03-21T07:53:57.577Z,97595.77
2019-03-21T07:56:25.089Z,97587.90
2019-03-21T07:58:52.162Z,97605.24
2019-03-21T08:01:19.223Z,97601.27
2019-03-21T08:03:46.512Z,97606.05
2019-03-21T08:06:13.883Z,97597.69
2019-03-21T08:08:41.225Z,97598.55
2019-03-21T08:11:08.575Z,97598.83
2019-03-21T08:13:35.620Z,97597.38
2019-03-21T08:16:02.975Z,97601.70
2019-03-21T08:18:30.333Z,97594.34
2019-03-21T08:21:00.005Z,97595.84
2019-03-21T08:23:26.476Z,97599.88
2019-03-21T08:25:53.531Z,97599.20
2019-03-21T08:28:20.577Z,97610.23
2019-03-21T08:30:47.617Z,97602.52
2019-03-21T08:33:14.672Z,97604.88
2019-03-21T08:35:41.719Z,97602.65
2019-03-21T08:38:08.772Z,97608.02
2019-03-21T08:40:35.816Z,97605.20
2019-03-21T08:43:03.174Z,97610.19
2019-03-21T08:45:31.546Z,97612.12
2019-03-21T08:47:58.919Z,97610.34
2019-03-21T08:50:26.260Z,97602.94
2019-03-21T08:52:53.319Z,97604.08
2019-03-21T08:55:20.367Z,97606.41
2019-03-21T08:57:47.424Z,97597.94
2019-03-21T09:00:14.464Z,97605.31
2019-03-21T09:02:41.523Z,97605.38
2019-03-21T09:05:08.562Z,97602.20
2019-03-21T09:07:35.917Z,97600.08
2019-03-21T09:10:02.957Z,97601.00
2019-03-21T09:12:30.506Z,97601.02
2019-03-21T09:14:57.553Z,97605.15
2019-03-21T09:17:24.603Z,97608.16
2019-03-21T09:19:51.649Z,97605.13
2019-03-21T09:22:19.007Z,97602.43
2019-03-21T09:24:46.050Z,97605.69
2019-03-21T09:27:13.101Z,97600.50
2019-03-21T09:29:40.148Z,97599.83
2019-03-21T09:32:07.233Z,97599.63
2019-03-21T09:34:34.258Z,97600.84
2019-03-21T09:37:03.887Z,97603.22
2019-03-21T09:39:31.314Z,97599.21
2019-03-21T09:41:58.355Z,97597.05
2019-03-21T09:44:25.415Z,97594.91
2019-03-21T09:46:52.451Z,97596.84
2019-03-21T09:49:19.503Z,97599.58
2019-03-21T09:51:46.790Z,97596.72
2019-03-21T09:54:14.112Z,97601.84
2019-03-21T09:56:41.477Z,97605.56
2019-03-21T09:59:08.822Z,97590.09
2019-03-21T10:01:35.864Z,97592.11
2019-03-21T10:04:03.223Z,97589.34
2019-03-21T10:06:30.258Z,97591.58
2019-03-21T10:08:57.630Z,97589.48
2019-03-21T10:11:24.982Z,97605.69
2019-03-21T10:13:52.035Z,97595.42
2019-03-21T10:16:19.147Z,97588.44
2019-03-21T10:18:46.535Z,97597.63
2019-03-21T10:21:13.579Z,97591.53
2019-03-21T10:23:40.630Z,97588.30
2019-03-21T10:26:07.677Z,97584.86
2019-03-21T10:28:35.034Z,97587.00
2019-03-21T10:31:02.074Z,97589.83
2019-03-21T10:33:29.128Z,97585.02
2019-03-21T10:35:56.172Z,97568.64
2019-03-21T10:38:23.531Z,97567.46
2019-03-21T10:40:50.577Z,97563.96
2019-03-21T10:43:17.631Z,97564.39
2019-03-21T10:45:44.998Z,97552.77
2019-03-21T10:48:12.041Z,97562.86
2019-03-21T10:50:39.082Z,97556.90
2019-03-21T10:53:07.203Z,97550.50
2019-03-21T10:55:34.246Z,97557.34
2019-03-21T10:58:01.284Z,97531.91
2019-03-21T11:00:28.342Z,97540.13
2019-03-21T11:02:55.379Z,97554.48
2019-03-21T11:05:23.354Z,97540.95
2019-03-21T11:07:50.870Z,97549.02
2019-03-21T11:10:17.924Z,97552.34
2019-03-21T11:12:46.302Z,97544.59
2019-03-21T11:15:13.358Z,97546.89
2019-03-21T11:17:40.398Z,97545.73
2019-03-21T11:20:07.452Z,97540.95
2019-03-21T11:22:34.492Z,97539.45
2019-03-21T11:25:01.847Z,97544.72
2019-03-21T11:27:28.884Z,97539.03
2019-03-21T11:29:55.938Z,97535.64
2019-03-21T11:32:22.973Z,97527.67
2019-03-21T11:34:50.040Z,97527.92
2019-03-21T11:37:17.396Z,97525.95
2019-03-21T11:39:44.750Z,97522.83
2019-03-21T11:42:11.790Z,97531.11
2019-03-21T11:44:38.850Z,97517.44
2019-03-21T11:47:05.897Z,97519.48
2019-03-21T11:49:32.997Z,97510.66
2019-03-21T11:51:59.986Z,97512.75
2019-03-21T11:54:27.342Z,97507.14
2019-03-21T11:56:54.630Z,97498.12
2019-03-21T11:59:21.688Z,97506.48
2019-03-21T12:01:48.729Z,97496.28
2019-03-21T12:04:15.783Z,97493.30
2019-03-21T12:06:42.820Z,97480.93
2019-03-21T12:09:09.859Z,97489.28
2019-03-21T12:11:36.910Z,97475.96
2019-03-21T12:14:04.240Z,97471.70
2019-03-21T12:16:31.609Z,97480.33
2019-03-21T12:18:58.646Z,97476.98
2019-03-21T12:21:25.718Z,97468.59
2019-03-21T12:23:52.759Z,97467.59
2019-03-21T12:26:19.815Z,97462.16
2019-03-21T12:28:46.861Z,97453.70
2019-03-21T12:31:13.914Z,97444.57
2019-03-21T12:33:40.960Z,97435.05
2019-03-21T12:36:08.288Z,97441.79
2019-03-21T12:38:35.394Z,97444.97
2019-03-21T12:41:02.793Z,97440.49
2019-03-21T12:43:30.094Z,97428.31
2019-03-21T12:45:57.150Z,97436.42
2019-03-21T12:48:24.548Z,97438.48
2019-03-21T12:50:51.599Z,97441.23
2019-03-21T12:53:18.645Z,97433.53
2019-03-21T12:55:45.998Z,97432.31
2019-03-21T12:58:13.035Z,97424.97
2019-03-21T13:00:41.067Z,97424.30
2019-03-21T13:03:08.102Z,97422.80
2019-03-21T13:05:35.425Z,97423.48
2019-03-21T13:08:02.464Z,97420.72
2019-03-21T13:10:29.536Z,97412.27
2019-03-21T13:12:56.578Z,97411.45
2019-03-21T13:15:29.860Z,97409.89
2019-03-21T13:17:52.654Z,97406.80
2019-03-21T13:20:19.718Z,97412.41
2019-03-21T13:22:52.768Z,97405.77
2019-03-21T13:25:15.507Z,97403.02
2019-03-21T13:27:42.551Z,97402.66
2019-03-21T13:30:09.891Z,97403.61
2019-03-21T13:32:36.935Z,97400.91
2019-03-21T13:35:06.203Z,97407.41
2019-03-21T13:37:32.727Z,97407.81
2019-03-21T13:39:59.762Z,97398.52
2019-03-21T13:42:27.079Z,97387.19
2019-03-21T13:44:54.430Z,97387.33
2019-03-21T13:47:21.787Z,97384.68
2019-03-21T13:49:48.833Z,97385.47
2019-03-21T13:52:16.210Z,97388.56
2019-03-21T13:54:43.546Z,97381.81
2019-03-21T13:57:10.898Z,97380.93
2019-03-21T13:59:38.259Z,97374.64
2019-03-21T14:02:05.321Z,97379.93
2019-03-21T14:04:32.659Z,97367.45
2019-03-21T14:07:00.014Z,97370.13
2019-03-21T14:09:27.367Z,97369.16
2019-03-21T14:11:54.422Z,97365.23
2019-03-21T14:14:21.471Z,97363.91
2019-03-21T14:16:50.878Z,97366.22
2019-03-21T14:19:17.586Z,97367.03
2019-03-21T14:21:45.607Z,97362.61
2019-03-21T14:24:12.935Z,97349.62
2019-03-21T14:26:40.241Z,97353.72
2019-03-21T14:29:12.518Z,97353.71
2019-03-21T14:31:36.327Z,97356.66
2019-03-21T14:34:04.342Z,97355.84
2019-03-21T14:36:31.407Z,97350.59
2019-03-21T14:38:58.442Z,97346.63
2019-03-21T14:41:25.751Z,97350.05
2019-03-21T14:43:52.803Z,97349.23
2019-03-21T14:46:20.169Z,97348.06
2019-03-21T14:48:47.508Z,97347.25
2019-03-21T14:51:14.794Z,97350.36
2019-03-21T14:53:42.921Z,97343.39
2019-03-21T14:56:09.971Z,97340.42
2019-03-21T14:58:37.339Z,97343.72
2019-03-21T15:01:04.455Z,97342.31
2019-03-21T15:03:31.863Z,97342.97
2019-03-21T15:05:58.905Z,97343.45
2019-03-21T15:08:26.252Z,97348.06
2019-03-21T15:10:53.282Z,97340.11
2019-03-21T15:13:20.359Z,97346.50
2019-03-21T15:15:47.379Z,97339.27
2019-03-21T15:18:14.430Z,97332.68
2019-03-21T15:20:41.466Z,97333.65
2019-03-21T15:23:08.523Z,97337.74
2019-03-21T15:25:35.983Z,97325.44
2019-03-21T15:28:03.116Z,97335.46
2019-03-21T15:30:31.372Z,97333.66
2019-03-21T15:32:58.496Z,97335.78
2019-03-21T15:35:25.823Z,97332.51
2019-03-21T15:37:53.187Z,97336.61
2019-03-21T15:40:20.291Z,97339.25
2019-03-21T15:42:47.703Z,97339.06
2019-03-21T15:45:22.194Z,97331.02
2019-03-21T15:47:43.565Z,97330.85
2019-03-21T15:50:11.676Z,97328.37
2019-03-21T15:52:39.047Z,97330.33
2019-03-21T15:55:06.103Z,97325.05
2019-03-21T15:57:33.476Z,97329.64
2019-03-21T16:00:00.522Z,97326.03
2019-03-21T16:02:27.566Z,97322.87
2019-03-21T16:04:58.623Z,97321.87
2019-03-21T16:07:27.939Z,97325.45
2019-03-21T16:09:55.187Z,97329.54
2019-03-21T16:12:22.261Z,97323.63
2019-03-21T16:14:49.454Z,97332.34
2019-03-21T16:17:16.508Z,97326.96
2019-03-21T16:19:43.554Z,97324.98
2019-03-21T16:22:10.622Z,97322.00
2019-03-21T16:24:37.683Z,97328.69
2019-03-21T16:27:04.727Z,97323.23
2019-03-21T16:29:32.138Z,97330.93
2019-03-21T16:31:59.200Z,97333.70
2019-03-21T16:34:26.543Z,97328.13
2019-03-21T16:36:53.595Z,97329.35
2019-03-21T16:39:20.659Z,97332.38
2019-03-21T16:41:48.011Z,97333.25
2019-03-21T16:44:15.074Z,97332.20
2019-03-21T16:46:42.121Z,97335.23
2019-03-21T16:49:09.183Z,97338.34
2019-03-21T16:51:39.563Z,97332.30
2019-03-21T16:54:16.481Z,97333.19
2019-03-21T16:56:35.364Z,97334.80
2019-03-21T16:59:02.759Z,97332.80
2019-03-21T17:01:30.141Z,97331.05
2019-03-21T17:03:57.587Z,97335.23
2019-03-21T17:06:24.658Z,97334.31
2019-03-21T17:08:51.720Z,97336.20
2019-03-21T17:11:19.022Z,97335.18
2019-03-21T17:13:46.100Z,97335.75
2019-03-21T17:16:13.160Z,97335.36
2019-03-21T17:18:40.211Z,97333.03
2019-03-21T17:21:09.493Z,97334.95
2019-03-21T17:23:36.337Z,97331.48
2019-03-21T17:26:03.666Z,97333.36
2019-03-21T17:28:30.735Z,97340.13
2019-03-21T17:30:57.786Z,97337.88
2019-03-21T17:33:24.835Z,97342.91
2019-03-21T17:35:51.906Z,97342.83
2019-03-21T17:38:18.966Z,97347.30
2019-03-21T17:40:46.359Z,97344.42
2019-03-21T17:43:13.411Z,97352.06
2019-03-21T17:45:40.805Z,97349.50
2019-03-21T17:48:08.238Z,97347.85
2019-03-21T17:50:35.574Z,97353.16
2019-03-21T17:53:02.930Z,97348.47
2019-03-21T17:55:31.305Z,97357.41
2019-03-21T17:57:58.353Z,97355.28
2019-03-21T18:00:25.715Z,97354.80
2019-03-21T18:02:52.765Z,97362.09
2019-03-21T18:05:19.823Z,97359.44
2019-03-21T18:07:47.934Z,97364.80
2019-03-21T18:10:16.385Z,97362.39
2019-03-21T18:12:43.717Z,97366.91
2019-03-21T18:15:11.175Z,97372.47
2019-03-21T18:17:39.291Z,97374.09
2019-03-21T18:20:06.701Z,97376.77
2019-03-21T18:22:33.747Z,97371.33
2019-03-21T18:25:01.107Z,97372.64
2019-03-21T18:27:28.154Z,97376.28
2019-03-21T18:29:55.214Z,97374.98
2019-03-21T18:32:22.558Z,97379.65
2019-03-21T18:34:49.928Z,97383.17
2019-03-21T18:37:16.974Z,97379.17
2019-03-21T18:39:44.034Z,97382.13
2019-03-21T18:42:11.337Z,97387.91
2019-03-21T18:44:38.401Z,97389.75
2019-03-21T18:47:05.444Z,97393.75
2019-03-21T18:49:32.484Z,97388.88
2019-03-21T18:51:59.602Z,97395.27
2019-03-21T18:54:27.021Z,97395.88
2019-03-21T18:56:54.118Z,97397.10
2019-03-21T18:59:21.172Z,97392.14
2019-03-21T19:01:57.949Z,97390.19
2019-03-21T19:04:17.662Z,97394.50
2019-03-21T19:06:44.766Z,97391.63
2019-03-21T19:09:11.842Z,97393.50
2019-03-21T19:11:39.238Z,97389.66
2019-03-21T19:14:06.281Z,97392.06
2019-03-21T19:16:33.344Z,97392.67
2019-03-21T19:19:00.688Z,97390.16
2019-03-21T19:21:27.995Z,97382.89
2019-03-21T19:23:56.297Z,97385.59
2019-03-21T19:26:23.357Z,97389.27
2019-03-21T19:28:50.425Z,97396.17
2019-03-21T19:31:17.750Z,97388.52
2019-03-21T19:33:45.146Z,97395.47
2019-03-21T19:36:12.163Z,97390.56
2019-03-21T19:38:39.213Z,97390.18
2019-03-21T19:41:06.553Z,97388.33
2019-03-21T19:43:33.612Z,97382.38
2019-03-21T19:46:01.738Z,97382.76
2019-03-21T19:48:28.773Z,97389.38
2019-03-21T19:50:56.178Z,97382.84
2019-03-21T19:53:23.226Z,97380.94
2019-03-21T19:55:50.283Z,97375.44
2019-03-21T19:58:17.326Z,97382.17
2019-03-21T20:00:44.680Z,97377.13
2019-03-21T20:03:11.732Z,97383.68
2019-03-21T20:05:39.082Z,97382.62
2019-03-21T20:08:09.286Z,97384.80
2019-03-21T20:10:37.578Z,97380.56
2019-03-21T20:13:04.628Z,97380.34
2019-03-21T20:15:31.861Z,97382.83
2019-03-21T20:17:59.158Z,97383.14
2019-03-21T20:20:26.695Z,97384.95
2019-03-21T20:22:54.256Z,97385.48
2019-03-21T20:25:23.659Z,97378.18
2019-03-21T20:27:51.130Z,97387.27
2019-03-21T20:30:18.246Z,97389.41
2019-03-21T20:32:45.631Z,97384.92
2019-03-21T20:35:12.683Z,97386.33
2019-03-21T20:37:39.773Z,97390.40
2019-03-21T20:40:06.885Z,97384.67
2019-03-21T20:42:34.249Z,97383.06
2019-03-21T20:45:01.305Z,97382.83
2019-03-21T20:47:29.854Z,97380.34
2019-03-21T20:49:56.897Z,97384.50
2019-03-21T20:52:23.958Z,97382.70
2019-03-21T20:54:51.004Z,97382.55
2019-03-21T20:57:18.374Z,97391.61
2019-03-21T20:59:45.424Z,97386.13
2019-03-21T21:02:13.547Z,97392.62
2019-03-21T21:04:40.591Z,97386.01
2019-03-21T21:07:09.104Z,97390.62
2019-03-21T21:09:36.152Z,97388.50
2019-03-21T21:12:03.510Z,97391.20
2019-03-21T21:14:30.866Z,97392.73
2019-03-21T21:16:58.217Z,97389.05
2019-03-21T21:19:25.292Z,97387.40
2019-03-21T21:21:52.328Z,97387.76
2019-03-21T21:24:19.665Z,97384.33
2019-03-21T21:26:47.025Z,97389.41
2019-03-21T21:29:14.067Z,97395.69
2019-03-21T21:31:41.130Z,97390.02
2019-03-21T21:34:08.186Z,97390.72
2019-03-21T21:36:35.243Z,97391.23
2019-03-21T21:39:02.590Z,97391.66
2019-03-21T21:41:31.119Z,97393.17
2019-03-21T21:43:58.527Z,97391.52
2019-03-21T21:46:25.589Z,97389.75
2019-03-21T21:48:52.637Z,97398.52
2019-03-21T21:51:20.062Z,97392.13
2019-03-21T21:53:47.418Z,97391.08
2019-03-21T21:56:17.817Z,97389.44
2019-03-21T21:58:43.226Z,97386.69
2019-03-21T22:01:10.449Z,97388.95
2019-03-21T22:03:37.672Z,97378.33
2019-03-21T22:06:04.733Z,97390.98
2019-03-21T22:08:31.794Z,97389.92
2019-03-21T22:10:58.855Z,97387.47
2019-03-21T22:13:25.930Z,97388.17
2019-03-21T22:15:52.979Z,97390.91
2019-03-21T22:18:20.047Z,97383.47
2019-03-21T22:20:47.090Z,97391.02
2019-03-21T22:23:14.450Z,97392.45
2019-03-21T22:25:41.497Z,97381.10
2019-03-21T22:28:10.158Z,97377.69
2019-03-21T22:30:38.900Z,97385.02
2019-03-21T22:35:47.218Z,97378.29
2019-03-21T22:38:19.723Z,97378.75
2019-03-21T22:40:49.026Z,97376.88
2019-03-21T22:48:33.261Z,97377.66
2019-03-21T22:51:03.689Z,97377.43
2019-03-21T22:53:31.913Z,97379.06
2019-03-21T22:56:00.069Z,97371.72
2019-03-21T22:58:31.994Z,97367.36
2019-03-21T23:01:16.474Z,97364.16
2019-03-21T23:03:43.694Z,97361.89
2019-03-21T23:06:10.982Z,97359.31
2019-03-21T23:13:54.923Z,97361.20
2019-03-21T23:16:21.817Z,97362.30
2019-03-21T23:18:49.158Z,97358.84
2019-03-21T23:21:18.628Z,97362.69
2019-03-21T23:23:45.682Z,97352.73
2019-03-21T23:26:12.721Z,97361.56
2019-03-21T23:28:39.769Z,97362.44
2019-03-21T23:31:06.871Z,97354.73
2019-03-21T23:33:34.545Z,97353.84
2019-03-21T23:36:01.585Z,97349.84
2019-03-21T23:38:28.900Z,97348.58
2019-03-21T23:40:56.666Z,97351.64
2019-03-21T23:43:24.791Z,97352.80
2019-03-21T23:46:04.001Z,97347.10
2019-03-21T23:48:31.297Z,97351.06
2019-03-21T23:50:58.329Z,97347.13
2019-03-21T23:53:25.381Z,97345.69
2019-03-21T23:55:52.416Z,97353.99
2019-03-21T23:58:19.827Z,97353.33
